Time;durP1;ratioP1;P1;durP2;ratioP2;P2;SDS_P1;SDS_P2;PMS_P1;PMS_P2;Temp;Humidity;BMP_temperature;BMP_pressure;BME280_temperature;BME280_humidity;BME280_pressure;Samples;Min_cycle;Max_cycle;Signal;HPM_P1;HPM_P2
2020/12/28 00:00:45;;;;;;;84.15;28.27;;;;;;;2.26;61.30;97690.16;5098400;28;20448;-46
2020/12/28 00:03:13;;;;;;;73.38;27.48;;;;;;;2.23;61.32;97683.34;5098416;28;20036;-46
2020/12/28 00:05:39;;;;;;;72.82;26.30;;;;;;;2.32;61.26;97669.34;5098009;28;20048;-46
2020/12/28 00:08:05;;;;;;;70.18;27.33;;;;;;;2.31;61.30;97670.25;5098280;28;20048;-46
2020/12/28 00:10:31;;;;;;;73.88;28.45;;;;;;;2.19;61.55;97661.06;5098194;28;20071;-46
2020/12/28 00:12:57;;;;;;;65.30;26.08;;;;;;;2.27;61.56;97653.94;5098207;28;20091;-46
2020/12/28 00:15:24;;;;;;;87.28;32.72;;;;;;;2.34;61.35;97652.09;5097834;28;20044;-46
2020/12/28 00:17:51;;;;;;;93.78;32.67;;;;;;;2.33;61.53;97653.78;5097740;28;20040;-46
2020/12/28 00:20:17;;;;;;;75.00;28.45;;;;;;;2.32;61.29;97646.94;5097598;28;20040;-46
2020/12/28 00:22:43;;;;;;;69.80;25.67;;;;;;;2.29;61.52;97648.75;5097683;28;20051;-46
2020/12/28 00:25:08;;;;;;;70.75;26.05;;;;;;;2.29;61.49;97643.59;5097945;28;20078;-46
2020/12/28 00:27:34;;;;;;;65.05;26.40;;;;;;;2.31;61.58;97627.16;5098226;28;20441;-46
2020/12/28 00:30:00;;;;;;;71.45;27.58;;;;;;;2.33;61.71;97617.63;5097851;28;20056;-46
2020/12/28 00:32:26;;;;;;;59.65;24.40;;;;;;;2.36;61.75;97608.94;5098002;28;20109;-46
2020/12/28 00:34:52;;;;;;;53.28;21.33;;;;;;;2.43;61.81;97600.13;5097514;28;20448;-46
2020/12/28 00:37:18;;;;;;;69.80;25.17;;;;;;;2.38;61.91;97609.75;5097648;28;20041;-46
2020/12/28 00:39:44;;;;;;;68.47;26.58;;;;;;;2.51;61.66;97602.53;5097376;28;20098;-46
2020/12/28 00:42:10;;;;;;;69.70;27.00;;;;;;;2.47;61.88;97601.75;5097300;28;20444;-46
2020/12/28 00:44:36;;;;;;;62.92;23.13;;;;;;;2.47;62.19;97608.66;5097606;28;20058;-46
2020/12/28 00:47:01;;;;;;;73.32;24.92;;;;;;;2.55;62.13;97604.97;5097314;28;20451;-46
2020/12/28 00:49:27;;;;;;;65.90;23.23;;;;;;;2.52;62.25;97597.31;5097670;28;20040;-46
2020/12/28 00:51:53;;;;;;;61.72;22.65;;;;;;;2.65;62.03;97600.38;5079489;28;20050;-46
2020/12/28 00:54:19;;;;;;;48.70;19.38;;;;;;;2.72;61.98;97594.16;5097064;28;20044;-46
2020/12/28 00:56:49;;;;;;;54.90;20.52;;;;;;;2.66;62.21;97585.72;5096414;28;20484;-46
2020/12/28 00:59:14;;;;;;;61.30;25.15;;;;;;;2.71;62.39;97589.03;5096205;28;20044;-46
2020/12/28 01:01:40;;;;;;;59.85;21.92;;;;;;;2.71;62.66;97579.53;5096126;28;20040;-46
2020/12/28 01:04:07;;;;;;;66.93;24.88;;;;;;;2.69;62.62;97575.31;5095856;28;20365;-46
2020/12/28 01:06:49;;;;;;;55.13;21.75;;;;;;;2.70;62.75;97562.34;5096370;28;20052;-46
2020/12/28 01:09:35;;;;;;;53.00;21.27;;;;;;;2.69;62.90;97564.97;5096797;28;20139;-46
2020/12/28 01:12:01;;;;;;;58.70;22.35;;;;;;;2.72;62.60;97557.13;5095946;28;20044;-46
2020/12/28 01:14:27;;;;;;;58.80;21.77;;;;;;;2.68;62.73;97551.19;5078953;28;20051;-46
2020/12/28 01:16:53;;;;;;;51.60;21.40;;;;;;;2.73;62.61;97553.63;5095765;28;20040;-46
2020/12/28 01:19:19;;;;;;;49.70;19.08;;;;;;;2.71;62.72;97545.94;5096393;28;20050;-46
2020/12/28 01:21:45;;;;;;;46.17;18.38;;;;;;;2.79;62.40;97545.69;5095772;28;20040;-46
2020/12/28 01:24:12;;;;;;;49.95;20.35;;;;;;;2.75;62.48;97534.59;5096034;28;20139;-46
2020/12/28 01:26:42;;;;;;;48.63;19.80;;;;;;;2.78;62.56;97541.44;5079205;28;20361;-46
2020/12/28 01:29:12;;;;;;;43.90;17.38;;;;;;;2.76;62.57;97532.84;5095968;28;20047;-46
2020/12/28 01:31:42;;;;;;;55.85;22.35;;;;;;;2.75;62.43;97524.25;5096312;28;20129;-46
2020/12/28 01:34:14;;;;;;;51.23;20.43;;;;;;;2.67;62.73;97518.50;5095798;28;20040;-46
2020/12/28 01:37:00;;;;;;;49.05;18.33;;;;;;;2.68;62.97;97511.56;5095549;28;20441;-46
2020/12/28 01:39:41;;;;;;;40.83;17.05;;;;;;;2.65;63.18;97494.41;5081149;28;20052;-46
2020/12/28 01:42:08;;;;;;;38.05;15.95;;;;;;;2.69;63.31;97501.19;5095723;28;20059;-46
2020/12/28 01:44:34;;;;;;;39.38;15.40;;;;;;;2.76;63.32;97499.25;5096766;28;20036;-46
2020/12/28 01:47:11;;;;;;;38.42;15.75;;;;;;;2.67;63.33;97497.81;5095444;28;20437;-46
2020/12/28 01:49:37;;;;;;;38.05;17.63;;;;;;;2.65;63.98;97496.16;5078601;28;20058;-46
2020/12/28 01:52:03;;;;;;;37.90;16.73;;;;;;;2.65;63.58;97484.06;5095671;28;20055;-46
2020/12/28 01:54:31;;;;;;;37.85;16.33;;;;;;;2.63;63.69;97483.25;5094642;28;20486;-46
2020/12/28 01:56:57;;;;;;;35.70;14.73;;;;;;;2.58;63.89;97475.66;5062090;28;20043;-46
2020/12/28 01:59:29;;;;;;;42.72;17.58;;;;;;;2.54;64.32;97465.47;5095638;28;20059;-46
2020/12/28 02:02:02;;;;;;;41.20;16.90;;;;;;;2.52;64.35;97455.16;5095645;28;20067;-46
2020/12/28 02:04:29;;;;;;;38.13;15.95;;;;;;;2.54;64.32;97458.56;5095356;28;20048;-46
2020/12/28 02:06:59;;;;;;;34.25;14.73;;;;;;;2.58;64.14;97459.31;5095411;28;20055;-46
2020/12/28 02:09:27;;;;;;;40.75;17.63;;;;;;;2.61;64.18;97463.56;5079060;28;20051;-46
2020/12/28 02:11:54;;;;;;;43.88;17.80;;;;;;;2.51;64.86;97453.47;5078386;28;20052;-46
2020/12/28 02:14:21;;;;;;;40.38;16.58;;;;;;;2.54;64.65;97455.13;5095379;28;20139;-46
2020/12/28 02:16:54;;;;;;;34.80;15.20;;;;;;;2.56;64.61;97458.50;5096245;28;20102;-46
2020/12/28 02:19:23;;;;;;;37.90;13.70;;;;;;;2.65;64.64;97455.66;5095349;28;20047;-46
2020/12/28 02:21:55;;;;;;;33.55;14.48;;;;;;;2.56;64.92;97445.56;5095368;28;20052;-46
2020/12/28 02:24:25;;;;;;;;;;;;;;;2.27;65.91;97443.88;5096273;28;20060;-46
2020/12/28 02:26:51;;;;;;;36.75;16.23;;;;;;;2.28;66.25;97435.25;5095944;28;19920;-46
2020/12/28 02:29:18;;;;;;;36.40;14.57;;;;;;;2.30;66.36;97436.88;5095301;28;20417;-46
2020/12/28 02:31:44;;;;;;;34.13;14.05;;;;;;;2.45;65.72;97421.81;5095275;28;20047;-46
2020/12/28 02:34:24;;;;;;;36.95;15.20;;;;;;;2.38;65.84;97418.56;5080449;28;20059;-46
2020/12/28 02:36:57;;;;;;;30.90;14.40;;;;;;;2.41;65.85;97415.91;5095783;28;20051;-46
2020/12/28 02:39:29;;;;;;;32.55;15.05;;;;;;;2.39;66.11;97422.00;5095241;28;20044;-46
2020/12/28 02:41:55;;;;;;;29.85;14.07;;;;;;;2.39;66.37;97419.41;5095173;28;20442;-46
2020/12/28 02:44:56;;;;;;;36.22;15.73;;;;;;;2.36;66.53;97412.59;5098077;28;20472;-46
2020/12/28 02:47:40;;;;;;;37.67;15.38;;;;;;;2.37;66.48;97414.28;5099656;28;20040;-46
2020/12/28 02:50:26;;;;;;;40.17;16.38;;;;;;;2.33;66.72;97398.03;5098868;28;20064;-46
2020/12/28 02:53:11;;;;;;;36.33;15.98;;;;;;;2.25;67.43;97394.84;5099762;28;20045;-46
2020/12/28 02:55:55;;;;;;;36.85;16.33;;;;;;;2.27;67.30;97384.44;5099830;28;20059;-46
2020/12/28 02:58:39;;;;;;;38.08;16.08;;;;;;;2.24;67.27;97371.63;5099532;28;20127;-46
2020/12/28 03:01:24;;;;;;;33.80;15.50;;;;;;;2.31;67.44;97376.59;5099649;28;20075;-46
2020/12/28 03:04:10;;;;;;;36.10;15.75;;;;;;;2.24;68.03;97372.50;5098110;28;20059;-46
2020/12/28 03:06:54;;;;;;;30.70;14.57;;;;;;;2.24;68.07;97374.22;5099230;28;20051;-46
2020/12/28 03:09:38;;;;;;;34.47;14.82;;;;;;;2.32;67.84;97360.19;5099123;28;20154;-46
2020/12/28 03:12:23;;;;;;;35.10;15.13;;;;;;;2.27;68.31;97372.38;5099425;28;20055;-46
2020/12/28 03:15:07;;;;;;;34.63;16.15;;;;;;;2.28;68.67;97374.09;5099014;28;20052;-46
2020/12/28 03:17:52;;;;;;;31.13;14.68;;;;;;;2.33;68.55;97372.19;5099239;28;20055;-46
2020/12/28 03:20:50;;;;;;;32.38;14.23;;;;;;;2.33;68.92;97372.19;5098163;28;20125;-46
2020/12/28 03:23:36;;;;;;;31.60;14.98;;;;;;;2.24;70.01;97363.88;5098216;28;20062;-46
2020/12/28 03:26:20;;;;;;;33.97;14.98;;;;;;;2.29;69.84;97344.78;5099115;28;20048;-46
2020/12/28 03:29:05;;;;;;;33.55;16.27;;;;;;;2.17;70.90;97339.97;5099137;28;20044;-46
2020/12/28 03:31:49;;;;;;;31.38;15.80;;;;;;;2.32;70.02;97342.09;5098750;28;20044;-46
2020/12/28 03:34:33;;;;;;;34.67;15.48;;;;;;;2.31;70.56;97329.25;5099016;28;20101;-46
2020/12/28 03:37:18;;;;;;;36.65;16.20;;;;;;;2.31;70.72;97326.66;5099272;28;20052;-46
2020/12/28 03:40:19;;;;;;;39.33;15.80;;;;;;;2.19;71.09;97303.78;5096994;28;20052;-46
2020/12/28 03:43:03;;;;;;;31.83;14.30;;;;;;;2.22;70.66;97303.69;5097880;28;20453;-46
2020/12/28 03:45:48;;;;;;;34.20;14.80;;;;;;;2.19;70.26;97306.38;5098568;28;20352;-46
2020/12/28 03:48:32;;;;;;;33.28;14.98;;;;;;;2.20;70.41;97295.13;5098598;28;20073;-46
2020/12/28 03:51:17;;;;;;;32.58;15.25;;;;;;;2.13;70.70;97294.47;5098717;28;20051;-46
2020/12/28 03:54:01;;;;;;;32.33;15.43;;;;;;;2.04;71.19;97284.44;5098111;28;20075;-46
2020/12/28 03:57:06;;;;;;;33.63;15.25;;;;;;;1.84;72.25;97269.56;5085180;28;20120;-46
2020/12/28 03:59:50;;;;;;;33.25;14.57;;;;;;;1.84;72.52;97272.13;5096577;28;20048;-46
2020/12/28 04:02:35;;;;;;;31.17;14.80;;;;;;;1.80;72.68;97273.13;5097847;28;20062;-46
2020/12/28 04:05:39;;;;;;;39.20;15.48;;;;;;;1.71;73.23;97278.56;5096371;28;20063;-46
2020/12/28 04:08:28;;;;;;;32.85;15.20;;;;;;;1.74;73.43;97268.16;5096184;28;20133;-46
2020/12/28 04:11:12;;;;;;;41.33;15.73;;;;;;;1.89;73.29;97253.94;5097760;28;20398;-46
2020/12/28 04:13:57;;;;;;;51.80;18.92;;;;;;;1.94;73.63;97254.63;5097994;28;20451;-46
2020/12/28 04:16:22;;;;;;;60.83;20.33;;;;;;;2.00;73.67;97252.69;5098068;28;20040;-46
2020/12/28 04:18:48;;;;;;;54.05;17.80;;;;;;;2.10;73.88;97248.94;5098049;28;20406;-46
2020/12/28 04:21:14;;;;;;;55.70;18.73;;;;;;;2.14;73.82;97241.94;5098342;28;20059;-46
2020/12/28 04:23:40;;;;;;;61.95;20.30;;;;;;;2.14;73.61;97238.50;5098003;28;20063;-46
2020/12/28 04:26:05;;;;;;;65.30;20.35;;;;;;;2.21;73.53;97232.25;5096853;28;20044;-46
2020/12/28 04:28:31;;;;;;;59.38;20.38;;;;;;;2.17;73.47;97225.50;5097535;28;20058;-46
2020/12/28 04:30:57;;;;;;;43.25;17.50;;;;;;;2.24;73.48;97225.28;5096717;28;20052;-46
2020/12/28 04:33:23;;;;;;;37.47;15.95;;;;;;;2.28;73.51;97223.44;5097535;28;20040;-46
2020/12/28 04:35:49;;;;;;;43.47;17.65;;;;;;;2.36;73.37;97231.75;5096776;28;20051;-46
2020/12/28 04:38:15;;;;;;;54.80;18.33;;;;;;;2.40;73.43;97235.06;5096854;28;20386;-46
2020/12/28 04:40:41;;;;;;;49.53;16.45;;;;;;;2.42;73.41;97241.88;5097429;28;20050;-46
2020/12/28 04:43:11;;;;;;;46.35;18.15;;;;;;;2.50;73.37;97242.50;5097339;28;20376;-46
2020/12/28 04:45:37;;;;;;;34.42;15.10;;;;;;;2.53;73.45;97244.94;5097302;28;20063;-46
2020/12/28 04:48:06;;;;;;;35.97;16.30;;;;;;;2.60;73.60;97247.31;5096713;28;20352;-46
2020/12/28 04:50:32;;;;;;;32.03;14.45;;;;;;;2.62;73.50;97246.38;5097610;28;20036;-46
2020/12/28 04:52:58;;;;;;;28.83;13.23;;;;;;;2.71;73.09;97243.50;5097171;28;20083;-46
2020/12/28 04:55:24;;;;;;;34.05;15.75;;;;;;;2.80;72.95;97250.94;5097125;28;20058;-46
2020/12/28 04:57:49;;;;;;;33.20;14.68;;;;;;;2.81;72.88;97226.75;5096985;28;20040;-46
2020/12/28 05:00:16;;;;;;;32.00;13.30;;;;;;;2.90;72.47;97228.19;5097327;28;20043;-46
2020/12/28 05:02:41;;;;;;;32.35;14.30;;;;;;;2.99;72.30;97222.69;5097260;28;20052;-46
2020/12/28 05:05:07;;;;;;;31.40;13.75;;;;;;;3.05;71.96;97213.84;5096372;28;20448;-46
2020/12/28 05:07:33;;;;;;;34.15;14.48;;;;;;;3.14;71.78;97210.94;5096780;28;20341;-46
2020/12/28 05:10:02;;;;;;;30.73;13.38;;;;;;;3.11;72.08;97205.03;5097149;28;20344;-46
2020/12/28 05:12:28;;;;;;;95.20;46.15;;;;;;;3.00;72.08;97184.75;5097114;28;20040;-46
2020/12/28 05:15:23;;;;;;;41.45;19.83;;;;;;;2.92;71.70;97179.00;5097094;28;20131;-46
2020/12/28 05:17:53;;;;;;;38.22;18.25;;;;;;;2.95;71.83;97171.97;5096221;28;20127;-46
2020/12/28 05:20:25;;;;;;;44.63;23.95;;;;;;;2.86;72.02;97182.66;5096104;28;20058;-46
2020/12/28 05:22:52;;;;;;;63.08;32.92;;;;;;;2.75;72.26;97177.03;5096976;28;20092;-46
2020/12/28 05:25:17;;;;;;;100.45;59.03;;;;;;;2.75;72.30;97180.44;5096888;28;20104;-46
2020/12/28 05:27:49;;;;;;;88.57;50.90;;;;;;;2.75;72.37;97192.53;5096809;28;20052;-46
2020/12/28 05:30:19;;;;;;;49.97;30.60;;;;;;;2.70;72.42;97191.88;5095911;28;20109;-46
2020/12/28 05:32:45;;;;;;;32.97;18.35;;;;;;;2.54;73.39;97201.88;5096162;28;20360;-46
2020/12/28 05:35:14;;;;;;;32.17;17.73;;;;;;;2.68;72.81;97206.56;5095884;28;20136;-46
2020/12/28 05:37:41;;;;;;;27.13;12.30;;;;;;;2.69;73.02;97216.84;5096634;28;20040;-46
2020/12/28 05:40:10;;;;;;;26.15;11.95;;;;;;;2.84;72.42;97214.63;5095778;28;20094;-46
2020/12/28 05:42:37;;;;;;;26.17;12.27;;;;;;;2.89;72.16;97223.06;5096626;28;20428;-46
2020/12/28 05:45:07;;;;;;;29.08;14.13;;;;;;;2.94;71.90;97232.34;5096646;28;20052;-46
2020/12/28 05:47:32;;;;;;;26.70;13.05;;;;;;;2.91;72.12;97236.78;5095738;28;20048;-46
2020/12/28 05:49:58;;;;;;;26.52;13.23;;;;;;;2.96;71.87;97230.56;5078823;28;20425;-46
2020/12/28 05:52:24;;;;;;;29.65;13.18;;;;;;;3.04;71.77;97240.63;5079705;28;20056;-46
2020/12/28 05:54:50;;;;;;;26.92;13.55;;;;;;;3.04;71.54;97240.63;5095414;28;20036;-46
2020/12/28 05:57:15;;;;;;;27.02;12.98;;;;;;;3.09;71.66;97238.72;5095621;28;20044;-46
2020/12/28 05:59:41;;;;;;;32.47;14.50;;;;;;;3.20;71.30;97228.81;5096422;28;20435;-46
2020/12/28 06:02:07;;;;;;;29.60;12.95;;;;;;;3.14;71.22;97229.06;5096453;28;20044;-54
2020/12/28 06:04:33;;;;;;;33.42;15.20;;;;;;;3.13;71.60;97229.97;5096291;28;20052;-54
2020/12/28 06:07:00;;;;;;;29.83;14.20;;;;;;;3.11;71.64;97223.16;5096431;28;20051;-54
2020/12/28 06:09:26;;;;;;;32.78;16.10;;;;;;;3.29;71.05;97240.59;5078595;28;20036;-54
2020/12/28 06:12:07;;;;;;;42.15;18.88;;;;;;;3.17;71.13;97226.34;5096055;28;20055;-54
2020/12/28 06:14:40;;;;;;;40.47;19.30;;;;;;;3.18;71.39;97230.63;5095509;28;20066;-54
2020/12/28 06:17:09;;;;;;;37.80;17.65;;;;;;;3.21;71.14;97225.34;5096596;28;20044;-54
2020/12/28 06:19:36;;;;;;;52.25;26.13;;;;;;;3.18;71.47;97209.91;5100498;28;20076;-54
2020/12/28 06:22:02;;;;;;;58.72;31.25;;;;;;;3.23;71.24;97209.78;5100090;28;20071;-54
2020/12/28 06:24:30;;;;;;;53.05;30.67;;;;;;;3.21;71.12;97207.22;5100308;28;20113;-54
2020/12/28 06:27:02;;;;;;;41.30;26.05;;;;;;;3.32;70.67;97206.84;5099906;28;20357;-54
2020/12/28 06:29:29;;;;;;;46.65;22.38;;;;;;;3.24;71.05;97208.88;5100286;28;20530;-54
2020/12/28 06:31:54;;;;;;;35.78;18.65;;;;;;;3.12;71.55;97210.19;5099100;28;20440;-54
2020/12/28 06:34:20;;;;;;;147.05;77.70;;;;;;;3.15;71.17;97209.19;5099804;28;20044;-54
2020/12/28 06:36:46;;;;;;;81.10;52.60;;;;;;;3.03;71.71;97207.91;5099167;28;20044;-54
2020/12/28 06:39:13;;;;;;;182.50;118.82;;;;;;;3.00;71.44;97198.53;5100072;28;20135;-54
2020/12/28 06:41:39;;;;;;;344.45;172.77;;;;;;;2.97;71.51;97196.03;5098818;28;20071;-54
2020/12/28 06:44:04;;;;;;;652.83;373.02;;;;;;;3.00;71.30;97195.94;5099931;28;20051;-54
2020/12/28 06:46:30;;;;;;;527.22;320.52;;;;;;;2.91;71.41;97182.50;5099932;28;20056;-54
2020/12/28 06:48:59;;;;;;;230.25;151.52;;;;;;;2.96;71.22;97190.94;5099879;28;20056;-54
2020/12/28 06:51:26;;;;;;;115.75;67.55;;;;;;;2.88;71.46;97190.34;5098962;28;20058;-54
2020/12/28 06:53:55;;;;;;;48.22;22.02;;;;;;;2.86;71.51;97186.97;5099927;28;20078;-46
2020/12/28 06:56:24;;;;;;;38.10;16.77;;;;;;;2.82;71.73;97204.34;5098789;28;20044;-46
2020/12/28 06:59:00;;;;;;;50.47;21.02;;;;;;;2.88;71.49;97213.63;5099783;28;20074;-46
2020/12/28 07:01:27;;;;;;;125.13;54.83;;;;;;;2.82;72.08;97222.44;5099652;28;20090;-46
2020/12/28 07:03:53;;;;;;;89.78;50.80;;;;;;;2.85;71.89;97232.66;5099291;28;20080;-47
2020/12/28 07:06:19;;;;;;;77.95;39.22;;;;;;;2.79;72.41;97235.47;5098761;28;20063;-46
2020/12/28 07:08:45;;;;;;;54.83;27.75;;;;;;;2.78;72.72;97229.44;5099491;28;20109;-46
2020/12/28 07:11:15;;;;;;;96.95;50.33;;;;;;;2.92;72.05;97226.38;5099424;28;20132;-46
2020/12/28 07:13:41;;;;;;;123.72;63.38;;;;;;;2.87;72.37;97222.28;5099763;28;20104;-46
2020/12/28 07:16:08;;;;;;;144.07;74.35;;;;;;;2.99;71.91;97219.25;5099297;28;20048;-46
2020/12/28 07:18:34;;;;;;;80.97;38.55;;;;;;;3.01;71.82;97220.03;5098187;28;20064;-46
2020/12/28 07:21:01;;;;;;;136.35;67.28;;;;;;;2.92;72.33;97225.53;5099252;28;20112;-46
2020/12/28 07:23:30;;;;;;;98.43;43.92;;;;;;;2.94;72.53;97222.00;5099245;28;20433;-46
2020/12/28 07:26:05;;;;;;;78.88;36.53;;;;;;;2.96;72.18;97215.06;5099695;28;20048;-46
2020/12/28 07:28:31;;;;;;;108.68;51.13;;;;;;;2.94;72.28;97222.00;5098253;28;20052;-46
2020/12/28 07:30:58;;;;;;;44.65;22.13;;;;;;;3.09;71.62;97212.00;5098797;28;20055;-46
2020/12/28 07:33:24;;;;;;;238.85;86.45;;;;;;;3.12;71.28;97214.47;5099012;28;20072;-46
2020/12/28 07:36:05;;;;;;;65.10;30.27;;;;;;;3.07;71.33;97211.22;5099024;28;20048;-46
2020/12/28 07:38:31;;;;;;;53.05;22.83;;;;;;;3.04;71.81;97205.25;5098631;28;20048;-46
2020/12/28 07:40:57;;;;;;;175.57;81.00;;;;;;;3.06;71.97;97212.13;5098885;28;20109;-46
2020/12/28 07:43:23;;;;;;;97.10;44.97;;;;;;;3.05;71.78;97203.50;5098618;28;20040;-46
2020/12/28 07:45:49;;;;;;;119.88;50.65;;;;;;;3.10;71.87;97211.97;5098817;28;20068;-46
2020/12/28 07:48:19;;;;;;;183.02;67.90;;;;;;;3.10;72.10;97211.97;5098288;28;20044;-54
2020/12/28 07:50:52;;;;;;;245.65;96.13;;;;;;;3.15;71.98;97217.81;5098782;28;20072;-48
2020/12/28 07:53:21;;;;;;;101.80;44.55;;;;;;;3.24;71.74;97206.28;5098670;28;20333;-54
2020/12/28 07:55:58;;;;;;;118.20;58.70;;;;;;;3.37;71.19;97193.72;5081268;28;20130;-46
2020/12/28 07:58:46;;;;;;;124.00;50.55;;;;;;;3.44;71.04;97192.59;5098670;28;20409;-54
2020/12/28 08:01:48;;;;;;;49.58;24.08;;;;;;;3.38;70.76;97190.22;5098383;28;20044;-46
2020/12/28 08:04:19;;;;;;;153.90;61.35;;;;;;;3.25;71.59;97198.47;5097566;28;20406;-54
2020/12/28 08:06:46;;;;;;;105.38;43.20;;;;;;;3.30;71.61;97202.63;5098604;28;20440;-54
2020/12/28 08:09:12;;;;;;;64.38;27.13;;;;;;;3.21;71.52;97183.09;5080938;28;20085;-54
2020/12/28 08:11:38;;;;;;;147.98;64.05;;;;;;;3.28;71.72;97185.44;5097979;28;20573;-54
2020/12/28 08:14:09;;;;;;;98.55;47.20;;;;;;;3.39;71.58;97174.66;5097964;28;20061;-54
2020/12/28 08:16:35;;;;;;;89.35;47.08;;;;;;;3.58;71.34;97163.63;5098197;28;20040;-46
2020/12/28 08:19:01;;;;;;;54.50;25.30;;;;;;;3.84;70.54;97160.84;5098166;28;20048;-46
2020/12/28 08:21:38;;;;;;;102.45;46.28;;;;;;;4.13;70.22;97162.25;5098304;28;20385;-54
2020/12/28 08:24:03;;;;;;;125.93;53.83;;;;;;;4.36;69.69;97158.69;5098195;28;20043;-54
2020/12/28 08:26:29;;;;;;;59.13;30.13;;;;;;;4.63;68.64;97153.25;5097539;28;20048;-55
2020/12/28 08:28:56;;;;;;;39.22;21.50;;;;;;;4.93;67.90;97157.06;5098299;28;20425;-55
2020/12/28 08:31:26;;;;;;;45.85;22.67;;;;;;;5.06;67.16;97156.53;5097907;28;20337;-55
2020/12/28 08:34:10;;;;;;;37.67;20.20;;;;;;;5.33;66.56;97154.44;5097904;28;20032;-55
2020/12/28 08:36:40;;;;;;;42.33;19.85;;;;;;;5.71;66.20;97151.81;5097799;28;20403;-54
2020/12/28 08:39:13;;;;;;;57.80;26.73;;;;;;;5.85;65.89;97157.22;5097783;28;20048;-55
2020/12/28 08:41:47;;;;;;;46.03;21.10;;;;;;;6.15;63.96;97160.09;5097534;28;20044;-55
2020/12/28 08:44:13;;;;;;;43.33;20.67;;;;;;;6.47;62.36;97150.69;5080963;28;20509;-55
2020/12/28 08:46:39;;;;;;;100.35;34.03;;;;;;;6.21;62.85;97156.38;5079615;28;20040;-55
2020/12/28 08:49:05;;;;;;;103.47;33.35;;;;;;;6.01;63.17;97147.78;5097278;28;20462;-55
2020/12/28 08:51:30;;;;;;;113.72;39.60;;;;;;;5.97;63.15;97156.63;5097496;28;20058;-55
2020/12/28 08:53:56;;;;;;;114.55;44.50;;;;;;;5.89;63.60;97144.91;5097233;28;20411;-55
2020/12/28 08:56:22;;;;;;;72.32;36.05;;;;;;;5.85;63.62;97154.59;5097344;28;20139;-55
2020/12/28 08:58:48;;;;;;;100.35;39.53;;;;;;;5.74;63.82;97156.84;5097302;28;20333;-55
2020/12/28 09:01:20;;;;;;;109.72;34.80;;;;;;;5.74;63.57;97160.28;5114480;27;20347;-55
2020/12/28 09:03:46;;;;;;;94.93;34.75;;;;;;;5.65;63.88;97159.88;5115123;28;20051;-55
2020/12/28 09:06:12;;;;;;;81.40;35.20;;;;;;;5.59;64.35;97153.25;5113378;28;20264;-48
2020/12/28 09:08:38;;;;;;;80.40;34.67;;;;;;;5.55;64.28;97152.53;5113305;28;20072;-47
2020/12/28 09:11:05;;;;;;;80.18;32.03;;;;;;;5.54;64.12;97144.81;5113223;28;20047;-47
2020/12/28 09:13:31;;;;;;;87.75;34.08;;;;;;;5.52;64.48;97149.22;5113765;28;20051;-47
2020/12/28 09:15:56;;;;;;;90.78;34.60;;;;;;;5.49;64.49;97139.84;5113350;28;20065;-47
2020/12/28 09:18:22;;;;;;;87.20;35.28;;;;;;;5.43;64.49;97142.75;5112818;28;20051;-48
2020/12/28 09:20:48;;;;;;;66.60;29.25;;;;;;;5.39;64.79;97135.97;5112885;28;20044;-48
2020/12/28 09:23:14;;;;;;;99.35;38.13;;;;;;;5.41;64.56;97141.13;5113922;28;20321;-48
2020/12/28 09:25:40;;;;;;;83.53;34.03;;;;;;;5.36;64.51;97138.72;5114555;28;20051;-55
2020/12/28 09:28:06;;;;;;;318.88;134.23;;;;;;;5.30;65.04;97139.03;5112969;28;20436;-55
2020/12/28 09:30:31;;;;;;;181.27;82.30;;;;;;;5.34;64.92;97132.78;5113749;28;20043;-47
2020/12/28 09:32:57;;;;;;;165.30;79.20;;;;;;;5.28;65.19;97130.47;5113701;28;20109;-55
2020/12/28 09:35:23;;;;;;;120.72;67.47;;;;;;;5.22;65.37;97123.78;5113663;28;20054;-55
2020/12/28 09:37:49;;;;;;;156.93;87.28;;;;;;;5.21;65.44;97124.72;5095612;28;20118;-55
2020/12/28 09:40:15;;;;;;;192.48;111.90;;;;;;;5.16;65.59;97131.84;5113148;28;20043;-55
2020/12/28 09:42:41;;;;;;;286.38;138.75;;;;;;;5.20;66.03;97127.34;5113484;28;20112;-55
2020/12/28 09:45:36;;;;;;;291.70;137.52;;;;;;;5.20;66.01;97119.56;5113093;28;20056;-55
2020/12/28 09:47:53;;;;;;;291.25;145.00;;;;;;;5.13;65.93;97119.88;5113015;28;20495;-55
2020/12/28 09:50:18;;;;;;;238.43;109.93;;;;;;;5.11;66.28;97106.13;5113344;28;20040;-55
2020/12/28 09:52:44;;;;;;;147.13;66.68;;;;;;;5.13;65.88;97108.63;5113293;28;20432;-55
2020/12/28 09:55:10;;;;;;;89.32;44.08;;;;;;;5.20;65.87;97102.28;5113283;28;20128;-55
2020/12/28 09:57:36;;;;;;;110.57;53.10;;;;;;;5.08;66.25;97092.44;5113171;28;20432;-55
2020/12/28 10:00:02;;;;;;;79.25;37.90;;;;;;;5.07;66.14;97098.53;5112593;28;20395;-55
2020/12/28 10:02:30;;;;;;;82.53;37.50;;;;;;;5.06;66.37;97100.28;5112770;28;20130;-55
2020/12/28 10:04:56;;;;;;;69.45;36.13;;;;;;;5.01;66.46;97086.72;5112836;28;20104;-55
2020/12/28 10:07:22;;;;;;;72.13;32.63;;;;;;;5.02;66.49;97093.56;5111852;28;20466;-55
2020/12/28 10:09:47;;;;;;;69.82;30.80;;;;;;;4.93;66.84;97089.63;5112654;28;20040;-55
2020/12/28 10:12:13;;;;;;;50.85;22.67;;;;;;;5.00;67.02;97079.81;5102080;28;20048;-55
2020/12/28 10:14:39;;;;;;;46.03;21.58;;;;;;;4.97;67.03;97072.16;5099291;28;20437;-55
2020/12/28 10:17:05;;;;;;;46.65;24.38;;;;;;;5.03;66.70;97069.28;5099004;28;20326;-55
2020/12/28 10:19:30;;;;;;;54.83;25.50;;;;;;;5.00;66.99;97053.88;5098824;28;20044;-55
2020/12/28 10:22:00;;;;;;;86.05;36.20;;;;;;;5.09;66.92;97061.22;5098815;28;20047;-55
2020/12/28 10:24:26;;;;;;;111.90;47.90;;;;;;;5.06;67.17;97056.19;5098846;28;20051;-55
2020/12/28 10:26:52;;;;;;;70.32;30.17;;;;;;;5.05;67.26;97051.91;5099074;28;20089;-55
2020/12/28 10:29:17;;;;;;;62.83;27.95;;;;;;;5.08;67.07;97046.59;5098764;28;20348;-55
2020/12/28 10:31:43;;;;;;;119.95;58.67;;;;;;;5.10;67.17;97043.91;5098876;28;20330;-55
2020/12/28 10:34:09;;;;;;;64.80;35.70;;;;;;;5.12;67.36;97049.88;5098058;28;20052;-55
2020/12/28 10:36:35;;;;;;;52.88;28.95;;;;;;;5.07;67.52;97041.44;5098573;28;20071;-55
2020/12/28 10:39:01;;;;;;;46.65;26.75;;;;;;;5.10;67.29;97043.91;5098699;28;20052;-55
2020/12/28 10:41:29;;;;;;;36.42;19.40;;;;;;;5.09;67.24;97045.66;5098780;28;20051;-55
2020/12/28 10:43:55;;;;;;;45.90;25.98;;;;;;;4.99;67.66;97039.22;5098725;28;20052;-55
2020/12/28 10:46:21;;;;;;;101.20;45.03;;;;;;;5.02;67.71;97033.06;5098377;28;20433;-55
2020/12/28 10:48:46;;;;;;;94.53;44.30;;;;;;;5.10;67.51;97043.91;5098403;28;20050;-55
2020/12/28 10:51:12;;;;;;;94.53;43.95;;;;;;;5.11;67.28;97028.28;5097743;28;20040;-55
2020/12/28 10:53:38;;;;;;;182.02;82.68;;;;;;;5.06;67.52;97011.25;5098959;28;20073;-55
2020/12/28 10:56:05;;;;;;;73.03;36.20;;;;;;;5.09;67.48;97014.53;5098551;28;20036;-55
2020/12/28 10:58:31;;;;;;;89.22;41.78;;;;;;;5.10;67.87;97002.41;5098704;28;20173;-55
2020/12/28 11:00:57;;;;;;;83.07;46.00;;;;;;;5.15;67.48;97003.03;5096865;28;20056;-55
2020/12/28 11:03:23;;;;;;;44.90;24.23;;;;;;;5.12;67.67;97000.59;5096989;28;20101;-55
2020/12/28 11:05:49;;;;;;;87.07;35.60;;;;;;;5.12;67.66;97004.00;5096071;28;20116;-55
2020/12/28 11:08:15;;;;;;;70.13;32.60;;;;;;;5.16;67.52;96995.16;5098258;28;20048;-55
2020/12/28 11:10:40;;;;;;;95.57;39.55;;;;;;;5.13;67.46;96990.16;5098272;28;20048;-55
2020/12/28 11:13:06;;;;;;;71.53;33.35;;;;;;;5.12;68.00;96988.44;5097879;28;20390;-55
2020/12/28 11:15:33;;;;;;;70.00;39.80;;;;;;;5.21;67.61;96978.56;5098145;28;20143;-56
2020/12/28 11:17:58;;;;;;;68.95;32.20;;;;;;;5.24;67.74;96986.19;5098053;28;20062;-55
2020/12/28 11:20:24;;;;;;;75.32;33.47;;;;;;;5.26;67.64;96977.38;5097108;28;20344;-55
2020/12/28 11:22:50;;;;;;;85.82;33.00;;;;;;;5.24;67.81;96975.81;5096985;28;20056;-55
2020/12/28 11:25:16;;;;;;;78.35;36.00;;;;;;;5.27;67.79;96975.66;5097893;28;20507;-55
2020/12/28 11:27:43;;;;;;;92.65;40.90;;;;;;;5.38;67.68;96965.59;5097936;28;20032;-55
2020/12/28 11:30:09;;;;;;;120.57;58.28;;;;;;;5.34;67.54;96964.91;5096757;28;20093;-55
2020/12/28 11:32:34;;;;;;;98.38;45.97;;;;;;;5.31;67.47;96967.63;5097762;28;20037;-55
2020/12/28 11:35:00;;;;;;;89.40;44.00;;;;;;;5.33;67.45;96964.94;5097747;28;20048;-55
2020/12/28 11:37:26;;;;;;;83.75;40.38;;;;;;;5.34;67.43;96964.91;5097417;28;20087;-55